createdAt,value
2018-03-19T00:01:52.658Z,-7.50
2018-03-19T00:04:19.655Z,-7.60
2018-03-19T00:06:46.109Z,-7.60
2018-03-19T00:09:12.330Z,-7.60
2018-03-19T00:11:38.520Z,-7.60
2018-03-19T00:14:04.767Z,-7.60
2018-03-19T00:16:31.699Z,-7.70
2018-03-19T00:18:58.669Z,-7.70
2018-03-19T00:21:24.865Z,-7.70
2018-03-19T00:23:51.089Z,-7.70
2018-03-19T00:26:17.292Z,-7.80
2018-03-19T00:28:43.508Z,-7.80
2018-03-19T00:31:09.698Z,-7.80
2018-03-19T00:33:36.693Z,-7.90
2018-03-19T00:36:02.933Z,-7.90
2018-03-19T00:38:29.141Z,-7.90
2018-03-19T00:40:55.334Z,-7.90
2018-03-19T00:43:22.314Z,-7.90
2018-03-19T00:45:48.507Z,-8.00
2018-03-19T00:48:15.449Z,-8.00
2018-03-19T00:50:42.440Z,-8.00
2018-03-19T00:53:09.417Z,-7.90
2018-03-19T00:55:35.641Z,-8.00
2018-03-19T00:58:01.840Z,-7.90
2018-03-19T01:00:28.069Z,-8.00
2018-03-19T01:02:54.260Z,-8.00
2018-03-19T01:05:21.333Z,-8.10
2018-03-19T01:07:47.444Z,-8.10
2018-03-19T01:10:14.428Z,-8.10
2018-03-19T01:12:40.623Z,-8.10
2018-03-19T01:15:06.828Z,-8.10
2018-03-19T01:17:33.797Z,-8.20
2018-03-19T01:19:59.995Z,-8.20
2018-03-19T01:22:26.226Z,-8.20
2018-03-19T01:24:52.715Z,-8.20
2018-03-19T01:27:18.942Z,-8.20
2018-03-19T01:29:45.128Z,-8.20
2018-03-19T01:32:12.140Z,-8.30
2018-03-19T01:34:38.336Z,-8.30
2018-03-19T01:37:04.528Z,-8.30
2018-03-19T01:39:31.489Z,-8.30
2018-03-19T01:41:58.432Z,-8.30
2018-03-19T01:44:25.400Z,-8.30
2018-03-19T01:46:51.624Z,-8.30
2018-03-19T01:49:18.167Z,-8.30
2018-03-19T01:51:44.356Z,-8.30
2018-03-19T01:54:10.607Z,-8.40
2018-03-19T01:56:36.868Z,-8.40
2018-03-19T01:59:03.093Z,-8.40
2018-03-19T02:01:29.289Z,-8.40
2018-03-19T02:03:55.552Z,-8.40
2018-03-19T02:06:21.767Z,-8.50
2018-03-19T02:08:48.316Z,-8.50
2018-03-19T02:11:14.560Z,-8.50
2018-03-19T02:13:40.812Z,-8.50
2018-03-19T02:16:07.703Z,-8.50
2018-03-19T02:18:34.285Z,-8.50
2018-03-19T02:21:01.845Z,-8.40
2018-03-19T02:23:28.827Z,-8.40
2018-03-19T02:25:55.772Z,-8.50
2018-03-19T02:28:22.716Z,-8.50
2018-03-19T02:30:49.749Z,-8.50
2018-03-19T02:33:16.713Z,-8.50
2018-03-19T02:35:43.658Z,-8.50
2018-03-19T02:38:10.620Z,-8.50
2018-03-19T02:40:36.809Z,-8.60
2018-03-19T02:43:03.329Z,-8.60
2018-03-19T02:45:29.535Z,-8.60
2018-03-19T02:47:55.736Z,-8.60
2018-03-19T02:50:22.701Z,-8.60
2018-03-19T02:52:48.901Z,-8.60
2018-03-19T02:55:15.878Z,-8.60
2018-03-19T02:57:42.105Z,-8.60
2018-03-19T03:00:08.328Z,-8.60
2018-03-19T03:02:34.536Z,-8.60
2018-03-19T03:05:01.503Z,-8.60
2018-03-19T03:07:27.733Z,-8.60
2018-03-19T03:09:53.969Z,-8.60
2018-03-19T03:12:20.160Z,-8.60
2018-03-19T03:14:46.872Z,-8.60
2018-03-19T03:17:13.837Z,-8.60
2018-03-19T03:19:40.061Z,-8.60
2018-03-19T03:22:06.251Z,-8.60
2018-03-19T03:24:32.476Z,-8.60
2018-03-19T03:26:58.671Z,-8.60
2018-03-19T03:29:25.635Z,-8.70
2018-03-19T03:31:51.864Z,-8.70
2018-03-19T03:34:18.117Z,-8.60
2018-03-19T03:36:44.309Z,-8.70
2018-03-19T03:39:11.253Z,-8.70
2018-03-19T03:41:38.221Z,-8.80
2018-03-19T03:44:04.421Z,-8.80
2018-03-19T03:46:31.401Z,-8.90
2018-03-19T03:48:57.600Z,-8.90
2018-03-19T03:51:24.572Z,-9.00
2018-03-19T03:53:50.771Z,-9.00
2018-03-19T03:56:17.736Z,-9.00
2018-03-19T03:58:50.920Z,-9.10
2018-03-19T04:01:17.892Z,-9.10
2018-03-19T04:03:44.080Z,-9.10
2018-03-19T04:06:11.048Z,-9.10
2018-03-19T04:08:37.251Z,-9.20
2018-03-19T04:11:04.248Z,-9.20
2018-03-19T04:13:30.440Z,-9.20
2018-03-19T04:15:57.379Z,-9.30
2018-03-19T04:18:24.351Z,-9.30
2018-03-19T04:20:50.549Z,-9.30
2018-03-19T04:23:17.525Z,-9.30
2018-03-19T04:25:43.721Z,-9.30
2018-03-19T04:28:09.948Z,-9.30
2018-03-19T04:30:37.633Z,-9.40
2018-03-19T04:33:03.919Z,-9.40
2018-03-19T04:35:30.893Z,-9.40
2018-03-19T04:37:57.865Z,-9.40
2018-03-19T04:40:24.061Z,-9.40
2018-03-19T04:42:51.106Z,-9.50
2018-03-19T04:45:17.327Z,-9.50
2018-03-19T04:47:43.557Z,-9.50
2018-03-19T04:50:09.788Z,-9.50
2018-03-19T04:52:36.028Z,-9.60
2018-03-19T04:55:02.973Z,-9.60
2018-03-19T04:57:30.683Z,-9.60
2018-03-19T04:59:56.879Z,-9.60
2018-03-19T05:02:23.845Z,-9.60
2018-03-19T05:04:50.300Z,-9.70
2018-03-19T05:07:16.526Z,-9.60
2018-03-19T05:09:42.729Z,-9.60
2018-03-19T05:12:09.763Z,-9.70
2018-03-19T05:14:36.700Z,-9.80
2018-03-19T05:17:02.965Z,-9.70
2018-03-19T05:19:29.161Z,-9.80
2018-03-19T05:21:56.462Z,-9.80
2018-03-19T05:24:22.654Z,-9.80
2018-03-19T05:26:49.629Z,-9.80
2018-03-19T05:29:15.833Z,-9.80
2018-03-19T05:31:42.822Z,-9.80
2018-03-19T05:34:09.045Z,-9.80
2018-03-19T05:36:35.275Z,-9.70
2018-03-19T05:39:01.502Z,-9.60
2018-03-19T05:41:27.764Z,-9.60
2018-03-19T05:43:53.960Z,-9.50
2018-03-19T05:46:20.533Z,-9.40
2018-03-19T05:48:46.740Z,-9.30
2018-03-19T05:51:13.013Z,-9.20
2018-03-19T05:53:39.959Z,-8.70
2018-03-19T05:56:06.908Z,-8.50
2018-03-19T05:58:33.877Z,-8.30
2018-03-19T06:01:00.109Z,-8.40
2018-03-19T06:03:26.309Z,-8.10
2018-03-19T06:05:53.244Z,-7.40
2018-03-19T06:08:19.472Z,-7.40
2018-03-19T06:10:46.412Z,-7.20
2018-03-19T06:13:12.636Z,-7.20
2018-03-19T06:15:40.321Z,-6.30
2018-03-19T06:18:07.289Z,-5.80
2018-03-19T06:20:33.493Z,-5.80
2018-03-19T06:23:06.831Z,-5.40
2018-03-19T06:25:33.025Z,-5.20
2018-03-19T06:27:59.284Z,-4.70
2018-03-19T06:30:25.481Z,-4.40
2018-03-19T06:32:52.476Z,-4.00
2018-03-19T06:35:18.672Z,-4.00
2018-03-19T06:37:44.901Z,-3.70
2018-03-19T06:40:11.095Z,-3.50
2018-03-19T06:42:37.380Z,-3.20
2018-03-19T06:45:03.572Z,-2.90
2018-03-19T06:47:30.564Z,-2.30
2018-03-19T06:49:56.762Z,-2.30
2018-03-19T06:52:22.988Z,-2.20
2018-03-19T06:54:49.919Z,-1.40
2018-03-19T06:57:16.877Z,-1.10
2018-03-19T06:59:43.817Z,-0.60
2018-03-19T07:02:10.781Z,-0.20
2018-03-19T07:04:36.968Z,-0.20
2018-03-19T07:07:03.196Z,0.10
2018-03-19T07:09:29.388Z,0.30
2018-03-19T07:11:55.614Z,0.60
2018-03-19T07:14:21.880Z,1.00
2018-03-19T07:16:48.070Z,1.20
2018-03-19T07:19:14.342Z,1.30
2018-03-19T07:21:40.580Z,1.40
2018-03-19T07:24:06.768Z,1.70
2018-03-19T07:26:33.006Z,2.10
2018-03-19T07:28:59.201Z,2.40
2018-03-19T07:31:25.393Z,2.70
2018-03-19T07:33:51.656Z,3.00
2018-03-19T07:36:17.848Z,3.10
2018-03-19T07:38:44.072Z,3.00
2018-03-19T07:41:10.273Z,2.90
2018-03-19T07:43:36.488Z,2.70
2018-03-19T07:46:02.685Z,3.20
2018-03-19T07:48:29.684Z,3.80
2018-03-19T07:50:55.884Z,3.80
2018-03-19T07:53:22.114Z,3.80
2018-03-19T07:55:48.305Z,4.60
2018-03-19T07:58:14.533Z,4.50
2018-03-19T08:00:40.738Z,4.20
2018-03-19T08:03:06.956Z,4.20
2018-03-19T08:05:33.154Z,4.60
2018-03-19T08:07:59.440Z,4.90
2018-03-19T08:10:25.650Z,4.70
2018-03-19T08:12:51.873Z,5.10
2018-03-19T08:15:18.067Z,5.30
2018-03-19T08:17:44.260Z,5.90
2018-03-19T08:20:10.500Z,6.40
2018-03-19T08:22:37.440Z,6.60
2018-03-19T08:25:03.688Z,6.60
2018-03-19T08:27:29.889Z,7.00
2018-03-19T08:29:56.847Z,7.30
2018-03-19T08:32:23.817Z,7.10
2018-03-19T08:34:50.060Z,7.10
2018-03-19T08:37:16.304Z,7.90
2018-03-19T08:39:42.523Z,8.20
2018-03-19T08:42:08.728Z,8.50
2018-03-19T08:44:34.944Z,8.90
2018-03-19T08:47:01.881Z,9.70
2018-03-19T08:49:28.526Z,9.60
2018-03-19T08:51:55.456Z,9.00
2018-03-19T08:54:22.268Z,9.00
2018-03-19T08:56:48.456Z,9.10
2018-03-19T08:59:15.428Z,9.70
2018-03-19T09:01:41.624Z,9.70
2018-03-19T09:04:08.586Z,9.00
2018-03-19T09:06:34.777Z,9.00
2018-03-19T09:09:01.312Z,8.10
2018-03-19T09:11:27.499Z,8.80
2018-03-19T09:13:54.059Z,7.70
2018-03-19T09:16:20.253Z,8.20
2018-03-19T09:18:46.449Z,9.00
2018-03-19T09:21:13.421Z,9.60
2018-03-19T09:23:39.633Z,9.50
2018-03-19T09:26:06.601Z,10.90
2018-03-19T09:28:32.819Z,10.90
2018-03-19T09:30:59.087Z,11.20
2018-03-19T09:33:25.284Z,11.40
2018-03-19T09:35:51.571Z,11.20
2018-03-19T09:38:17.782Z,12.10
2018-03-19T09:40:44.011Z,11.60
2018-03-19T09:43:10.214Z,11.90
2018-03-19T09:45:36.448Z,12.40
2018-03-19T09:48:02.645Z,12.20
2018-03-19T09:50:28.843Z,12.10
2018-03-19T09:52:56.552Z,11.50
2018-03-19T09:55:22.752Z,11.50
2018-03-19T09:57:49.717Z,12.00
2018-03-19T10:00:15.909Z,11.90
2018-03-19T10:02:42.128Z,12.40
2018-03-19T10:05:08.333Z,11.70
2018-03-19T10:07:34.572Z,12.50
2018-03-19T10:10:00.789Z,13.00
2018-03-19T10:12:27.012Z,12.80
2018-03-19T10:14:53.204Z,13.00
2018-03-19T10:17:20.172Z,12.20
2018-03-19T10:19:46.375Z,12.10
2018-03-19T10:22:12.632Z,12.90
2018-03-19T10:24:38.838Z,13.80
2018-03-19T10:27:05.777Z,12.50
2018-03-19T10:29:32.752Z,13.50
2018-03-19T10:31:58.964Z,13.50
2018-03-19T10:34:25.922Z,11.90
2018-03-19T10:36:52.143Z,11.90
2018-03-19T10:39:19.106Z,12.40
2018-03-19T10:41:45.296Z,12.50
2018-03-19T10:44:12.264Z,12.40
2018-03-19T10:46:39.196Z,11.90
2018-03-19T10:49:06.166Z,11.70
2018-03-19T10:51:32.355Z,11.70
2018-03-19T10:53:58.584Z,12.50
2018-03-19T10:56:24.776Z,13.10
2018-03-19T10:58:51.000Z,13.60
2018-03-19T11:01:23.256Z,13.70
2018-03-19T11:03:54.070Z,13.50
2018-03-19T11:09:30.367Z,13.60
2018-03-19T11:11:56.680Z,14.10
2018-03-19T11:14:22.836Z,14.60
2018-03-19T11:16:49.036Z,14.30
2018-03-19T11:19:16.005Z,14.50
2018-03-19T11:21:42.199Z,14.50
2018-03-19T11:24:08.588Z,14.20
2018-03-19T11:26:41.824Z,13.90
2018-03-19T11:29:08.044Z,14.10
2018-03-19T11:31:34.243Z,14.10
2018-03-19T11:34:00.489Z,14.20
2018-03-19T11:36:27.772Z,14.30
2018-03-19T11:38:53.941Z,15.00
2018-03-19T11:41:20.201Z,16.00
2018-03-19T11:43:46.388Z,16.50
2018-03-19T11:46:12.612Z,16.50
2018-03-19T11:48:38.816Z,16.50
2018-03-19T11:51:05.039Z,16.70
2018-03-19T11:53:31.236Z,16.50
2018-03-19T11:55:57.462Z,16.80
2018-03-19T11:58:23.650Z,16.30
2018-03-19T12:00:49.877Z,15.90
2018-03-19T12:03:16.813Z,15.30
2018-03-19T12:05:43.772Z,15.70
2018-03-19T12:08:10.704Z,15.90
2018-03-19T12:10:37.672Z,15.80
2018-03-19T12:13:03.870Z,15.80
2018-03-19T12:15:30.103Z,15.80
2018-03-19T12:17:56.365Z,15.40
2018-03-19T12:20:22.580Z,15.90
2018-03-19T12:22:49.512Z,16.50
2018-03-19T12:25:16.501Z,16.70
2018-03-19T12:27:42.764Z,16.70
2018-03-19T12:30:08.961Z,17.30
2018-03-19T12:32:35.222Z,17.40
2018-03-19T12:35:01.416Z,17.30
2018-03-19T12:37:27.632Z,17.40
2018-03-19T12:39:53.829Z,17.50
2018-03-19T12:42:20.045Z,17.80
2018-03-19T12:44:46.241Z,17.70
2018-03-19T12:47:12.460Z,17.20
2018-03-19T12:49:38.643Z,16.60
2018-03-19T12:52:05.124Z,16.90
2018-03-19T12:54:31.324Z,17.10
2018-03-19T12:56:58.285Z,17.40
2018-03-19T12:59:24.475Z,17.40
2018-03-19T13:01:50.691Z,17.10
2018-03-19T13:04:16.883Z,16.90
2018-03-19T13:06:43.108Z,16.50
2018-03-19T13:09:09.321Z,16.40
2018-03-19T13:11:35.537Z,16.90
2018-03-19T13:14:02.508Z,17.20
2018-03-19T13:16:28.707Z,17.20
2018-03-19T13:18:55.680Z,17.00
2018-03-19T13:21:21.878Z,17.00
2018-03-19T13:23:48.869Z,16.20
2018-03-19T13:26:15.056Z,16.20
2018-03-19T13:28:42.021Z,15.90
2018-03-19T13:31:08.301Z,15.90
2018-03-19T13:33:34.532Z,16.10
2018-03-19T13:36:00.732Z,15.70
2018-03-19T13:38:26.947Z,15.40
2018-03-19T13:40:53.140Z,15.60
2018-03-19T13:43:19.364Z,15.70
2018-03-19T13:45:45.570Z,15.90
2018-03-19T13:48:11.801Z,15.70
2018-03-19T13:50:38.008Z,15.80
2018-03-19T13:53:04.235Z,15.90
2018-03-19T13:55:30.448Z,16.10
2018-03-19T13:57:56.717Z,15.80
2018-03-19T14:00:22.908Z,15.30
2018-03-19T14:02:49.144Z,15.30
2018-03-19T14:05:15.341Z,15.80
2018-03-19T14:07:42.312Z,13.90
2018-03-19T14:10:08.503Z,13.80
2018-03-19T14:12:34.726Z,13.80
2018-03-19T14:15:00.915Z,12.80
2018-03-19T14:17:27.128Z,13.30
2018-03-19T14:19:53.327Z,13.90
2018-03-19T14:22:20.655Z,14.00
2018-03-19T14:24:46.843Z,14.00
2018-03-19T14:27:16.026Z,14.30
2018-03-19T14:29:42.245Z,14.30
2018-03-19T14:32:09.184Z,13.20
2018-03-19T14:34:36.158Z,13.30
2018-03-19T14:37:02.477Z,13.20
2018-03-19T14:39:28.754Z,13.60
2018-03-19T14:41:54.926Z,14.00
2018-03-19T14:44:21.884Z,14.00
2018-03-19T14:46:48.080Z,14.00
2018-03-19T14:49:14.305Z,14.20
2018-03-19T14:51:41.984Z,14.30
2018-03-19T14:54:08.952Z,13.90
2018-03-19T14:56:35.136Z,13.90
2018-03-19T14:59:02.847Z,13.90
2018-03-19T15:01:29.045Z,13.90
2018-03-19T15:03:56.016Z,14.10
2018-03-19T15:06:22.226Z,14.10
2018-03-19T15:08:49.193Z,13.60
2018-03-19T15:11:15.388Z,13.50
2018-03-19T15:13:42.360Z,13.30
2018-03-19T15:16:08.569Z,13.30
2018-03-19T15:18:34.853Z,13.60
2018-03-19T15:21:01.383Z,13.40
2018-03-19T15:23:27.605Z,13.10
2018-03-19T15:25:53.830Z,12.70
2018-03-19T15:28:20.057Z,12.40
2018-03-19T15:30:46.267Z,12.50
2018-03-19T15:33:12.500Z,12.60
2018-03-19T15:35:39.463Z,12.50
2018-03-19T15:38:05.688Z,12.40
2018-03-19T15:40:31.936Z,11.90
2018-03-19T15:42:58.165Z,11.10
2018-03-19T15:45:24.376Z,11.10
2018-03-19T15:47:50.604Z,10.80
2018-03-19T15:50:16.812Z,10.70
2018-03-19T15:52:43.744Z,10.60
2018-03-19T15:55:10.003Z,10.60
2018-03-19T15:57:36.288Z,10.20
2018-03-19T16:00:03.268Z,9.60
2018-03-19T16:02:30.226Z,9.30
2018-03-19T16:04:56.449Z,9.30
2018-03-19T16:07:23.395Z,8.20
2018-03-19T16:09:50.839Z,7.60
2018-03-19T16:12:17.800Z,7.20
2018-03-19T16:14:44.763Z,6.80
2018-03-19T16:17:10.970Z,6.80
2018-03-19T16:19:37.198Z,6.70
2018-03-19T16:22:04.160Z,6.40
2018-03-19T16:24:30.393Z,6.40
2018-03-19T16:26:56.589Z,6.00
2018-03-19T16:29:23.724Z,5.50
2018-03-19T16:31:50.010Z,5.50
2018-03-19T16:34:16.228Z,5.20
2018-03-19T16:36:42.436Z,4.80
2018-03-19T16:39:09.400Z,4.60
2018-03-19T16:41:35.597Z,4.50
2018-03-19T16:44:01.813Z,4.40
2018-03-19T16:46:28.005Z,4.20
2018-03-19T16:48:54.224Z,3.90
2018-03-19T16:51:20.441Z,3.50
2018-03-19T16:53:46.741Z,3.10
2018-03-19T16:56:12.956Z,2.50
2018-03-19T16:58:39.180Z,1.80
2018-03-19T17:01:05.687Z,1.20
2018-03-19T17:03:31.913Z,0.70
2018-03-19T17:05:58.126Z,0.30
2018-03-19T17:08:24.348Z,0.00
2018-03-19T17:10:51.285Z,-0.70
2018-03-19T17:13:18.253Z,-0.90
2018-03-19T17:15:44.444Z,-0.90
2018-03-19T17:18:10.682Z,-1.10
2018-03-19T17:20:37.616Z,-1.40
2018-03-19T17:23:03.831Z,-1.40
2018-03-19T17:25:30.049Z,-1.60
2018-03-19T17:27:56.239Z,-1.70
2018-03-19T17:30:22.490Z,-1.90
2018-03-19T17:32:48.729Z,-2.00
2018-03-19T17:35:14.953Z,-2.10
2018-03-19T17:37:41.149Z,-2.20
2018-03-19T17:40:07.369Z,-2.30
2018-03-19T17:42:34.305Z,-2.40
2018-03-19T17:45:01.272Z,-2.50
2018-03-19T17:47:27.548Z,-2.50
2018-03-19T17:49:53.773Z,-2.60
2018-03-19T17:52:19.971Z,-2.70
2018-03-19T17:54:46.576Z,-2.70
2018-03-19T17:57:13.504Z,-2.80
2018-03-19T17:59:39.737Z,-2.80
2018-03-19T18:02:05.935Z,-2.90
2018-03-19T18:04:32.210Z,-3.00
2018-03-19T18:06:58.413Z,-3.00
2018-03-19T18:09:24.640Z,-3.10
2018-03-19T18:11:50.864Z,-3.10
2018-03-19T18:14:17.088Z,-3.10
2018-03-19T18:16:43.289Z,-3.10
2018-03-19T18:19:09.514Z,-3.20
2018-03-19T18:21:35.704Z,-3.30
2018-03-19T18:24:01.933Z,-3.30
2018-03-19T18:26:28.128Z,-3.30
2018-03-19T18:28:54.357Z,-3.20
2018-03-19T18:31:20.577Z,-3.30
2018-03-19T18:33:46.796Z,-3.30
2018-03-19T18:36:13.018Z,-3.30
2018-03-19T18:38:39.245Z,-3.30
2018-03-19T18:41:05.441Z,-3.30
2018-03-19T18:43:32.409Z,-3.30
2018-03-19T18:45:58.672Z,-3.30
2018-03-19T18:48:24.956Z,-3.40
2018-03-19T18:50:51.888Z,-3.50
2018-03-19T18:53:18.143Z,-3.50
2018-03-19T18:55:44.368Z,-3.50
2018-03-19T18:58:11.305Z,-3.60
2018-03-19T19:00:38.284Z,-3.70
2018-03-19T19:03:04.477Z,-3.70
2018-03-19T19:05:31.444Z,-3.70
2018-03-19T19:07:57.641Z,-3.70
2018-03-19T19:10:23.863Z,-3.80
2018-03-19T19:12:50.061Z,-3.90
2018-03-19T19:15:16.385Z,-3.90
2018-03-19T19:17:42.576Z,-3.90
2018-03-19T19:20:09.549Z,-4.10
2018-03-19T19:22:35.786Z,-4.10
2018-03-19T19:25:02.014Z,-4.10
2018-03-19T19:27:28.268Z,-4.20
2018-03-19T19:29:54.600Z,-4.30
2018-03-19T19:32:20.796Z,-4.30
2018-03-19T19:34:47.023Z,-4.30
2018-03-19T19:37:13.232Z,-4.40
2018-03-19T19:39:40.205Z,-4.20
2018-03-19T19:42:06.392Z,-4.30
2018-03-19T19:44:33.348Z,-4.20
2018-03-19T19:47:00.298Z,-4.20
2018-03-19T19:49:26.544Z,-4.20
2018-03-19T19:51:52.732Z,-4.10
2018-03-19T19:54:18.933Z,-4.20
2018-03-19T19:56:45.153Z,-4.20
2018-03-19T19:59:11.371Z,-4.20
2018-03-19T20:01:37.604Z,-4.20
2018-03-19T20:04:03.798Z,-4.20
2018-03-19T20:06:30.028Z,-4.20
2018-03-19T20:08:56.968Z,-4.40
2018-03-19T20:11:23.200Z,-4.40
2018-03-19T20:13:50.130Z,-4.20
2018-03-19T20:16:17.097Z,-4.30
2018-03-19T20:18:44.029Z,-4.30
2018-03-19T20:21:10.264Z,-4.30
2018-03-19T20:23:37.196Z,-4.30
2018-03-19T20:26:04.160Z,-4.40
2018-03-19T20:28:31.088Z,-4.40
2018-03-19T20:30:57.345Z,-4.40
2018-03-19T20:33:23.536Z,-4.50
2018-03-19T20:35:49.757Z,-4.50
2018-03-19T20:38:17.508Z,-4.60
2018-03-19T20:40:43.733Z,-4.60
2018-03-19T20:43:09.934Z,-4.60
2018-03-19T20:45:36.162Z,-4.70
2018-03-19T20:48:02.368Z,-4.80
2018-03-19T20:50:28.943Z,-4.80
2018-03-19T20:52:55.144Z,-4.80
2018-03-19T20:55:21.363Z,-4.80
2018-03-19T20:57:48.300Z,-4.80
2018-03-19T21:00:15.279Z,-4.80
2018-03-19T21:02:41.476Z,-4.80
2018-03-19T21:05:08.467Z,-4.80
2018-03-19T21:07:34.663Z,-4.80
2018-03-19T21:10:00.865Z,-4.80
2018-03-19T21:12:27.832Z,-4.80
2018-03-19T21:14:54.764Z,-4.80
2018-03-19T21:17:20.985Z,-4.90
2018-03-19T21:19:47.176Z,-4.90
2018-03-19T21:22:13.388Z,-4.90
2018-03-19T21:24:39.588Z,-4.90
2018-03-19T21:27:06.552Z,-4.90
2018-03-19T21:29:32.766Z,-4.90
2018-03-19T21:31:59.764Z,-4.90
2018-03-19T21:34:26.340Z,-4.90
2018-03-19T21:36:53.312Z,-4.90
2018-03-19T21:39:19.503Z,-5.00
2018-03-19T21:41:45.747Z,-5.00
2018-03-19T21:44:12.679Z,-5.10
2018-03-19T21:46:38.922Z,-5.10
2018-03-19T21:49:05.868Z,-5.10
2018-03-19T21:51:32.864Z,-5.10
2018-03-19T21:53:59.060Z,-5.10
2018-03-19T21:56:25.988Z,-5.10
2018-03-19T21:58:52.956Z,-5.10
2018-03-19T22:01:19.184Z,-5.10
2018-03-19T22:03:45.384Z,-5.10
2018-03-19T22:06:11.606Z,-5.10
2018-03-19T22:08:38.103Z,-5.10
2018-03-19T22:11:04.324Z,-5.10
2018-03-19T22:13:30.529Z,-5.10
2018-03-19T22:15:57.501Z,-5.20
2018-03-19T22:18:23.712Z,-5.30
2018-03-19T22:20:49.904Z,-5.20
2018-03-19T22:23:17.616Z,-5.20
2018-03-19T22:25:43.873Z,-5.20
2018-03-19T22:28:10.068Z,-5.20
2018-03-19T22:30:36.257Z,-5.20
2018-03-19T22:33:02.519Z,-5.30
2018-03-19T22:35:28.720Z,-5.30
2018-03-19T22:37:54.975Z,-5.30
2018-03-19T22:40:21.176Z,-5.30
2018-03-19T22:42:48.147Z,-5.30
2018-03-19T22:45:14.355Z,-5.40
2018-03-19T22:47:41.320Z,-5.40
2018-03-19T22:50:08.257Z,-5.40
2018-03-19T22:52:35.355Z,-5.40
2018-03-19T22:55:01.548Z,-5.40
2018-03-19T22:57:28.780Z,-5.40
2018-03-19T22:59:55.748Z,-5.40
2018-03-19T23:02:21.967Z,-5.40
2018-03-19T23:05:01.277Z,-5.30
2018-03-19T23:07:28.241Z,-5.30
2018-03-19T23:09:55.185Z,-5.30
2018-03-19T23:12:22.148Z,-5.20
2018-03-19T23:14:49.092Z,-5.10
2018-03-19T23:17:16.049Z,-5.10
2018-03-19T23:19:42.247Z,-5.10
2018-03-19T23:22:09.220Z,-5.10
2018-03-19T23:24:35.452Z,-5.20
2018-03-19T23:27:01.837Z,-5.20
2018-03-19T23:29:28.024Z,-5.20
2018-03-19T23:31:54.240Z,-5.30
2018-03-19T23:34:20.460Z,-5.30
2018-03-19T23:36:47.393Z,-5.40
2018-03-19T23:39:14.365Z,-5.40
2018-03-19T23:41:40.564Z,-5.50
2018-03-19T23:44:06.784Z,-5.40
2018-03-19T23:46:32.976Z,-5.40
2018-03-19T23:48:59.200Z,-5.40
2018-03-19T23:51:25.393Z,-5.40
2018-03-19T23:53:52.356Z,-5.30
2018-03-19T23:56:18.556Z,-5.40
2018-03-19T23:58:45.525Z,-5.40
